Main page
Satellite images 15-day forecastsClimateMarine weather Cyclones Lightning AirportsFAQ Newsletter About
Weather : Europe Africa North America South America Asia Australia-Oceania Others
Languages Contact

London, England

City airport

latitude: 51-30N, longitude: 000-03E, elevation: 5 m


METAR: EGLC 281150Z 05009KT 350V080 9999 FEW026 FEW040TCU 20/13 Q1016
short-TAF: EGLC 281101Z 2812/2821 05008KT 9999 FEW040 BECMG 2812/2815 35010KT PROB40 TEMPO 2813/2821 7000 SHRA
long-TAF: missing

Time: 13:18 (12:18 UTC)

Current weather observation

The report was made 28 minutes ago, at 11:50 UTC  
Wind 09 kt from the Northeast, varying between North and East
Temperature 20°C
Humidity 64%
Pressure 1016 hPa
Visibility 10 km or more
Few clouds at a height of 2600 ft
Few clouds at a height of 4000 ft , Towering cumulus.

Change units

Forecast

The report was made 1 hour and 3 minutes ago, at 11:15 UTC  
Forecast valid from 28 at 12 UTC to 28 at 21 UTC
Wind 08 kt from the Northeast
Visibility 10 km or more
Few clouds at a height of 4000 ft
Becoming
from 28 at 12 UTC to 28 at 15 UTC
Wind 10 kt from the North
Probability 40% :
Temporary
from 28 at 13 UTC to 28 at 21 UTC
Visibility 7000 m
rain showers
The information on this site is subject to a disclaimer
Weather : Europe Africa North America South America Asia Australia-Oceania Others
Satellite images 15-day forecastsClimateMarine weather Cyclones Lightning AirportsFAQ Languages Contact Newsletter About